sensor_id;sensor_type;location;lat;lon;timestamp;pressure;altitude;pressure_sealevel;temperature;humidity
29371;BME280;16357;52.188;7.838;2023-04-30T00:00:00;101596.06;;;10.25;55.80
29371;BME280;16357;52.188;7.838;2023-04-30T00:02:27;101599.00;;;10.22;55.63
29371;BME280;16357;52.188;7.838;2023-04-30T00:04:54;101602.81;;;10.20;55.63
29371;BME280;16357;52.188;7.838;2023-04-30T00:07:20;101615.50;;;10.18;55.67
29371;BME280;16357;52.188;7.838;2023-04-30T00:09:46;101603.31;;;10.14;55.72
29371;BME280;16357;52.188;7.838;2023-04-30T00:12:13;101601.91;;;10.09;55.73
29371;BME280;16357;52.188;7.838;2023-04-30T00:14:39;101606.53;;;10.07;55.99
29371;BME280;16357;52.188;7.838;2023-04-30T00:17:06;101613.16;;;10.03;56.22
29371;BME280;16357;52.188;7.838;2023-04-30T00:19:32;101612.72;;;9.98;56.36
29371;BME280;16357;52.188;7.838;2023-04-30T00:21:58;101616.63;;;9.94;56.21
29371;BME280;16357;52.188;7.838;2023-04-30T00:24:27;101624.06;;;9.91;56.66
29371;BME280;16357;52.188;7.838;2023-04-30T00:26:53;101616.41;;;9.86;57.04
29371;BME280;16357;52.188;7.838;2023-04-30T00:29:19;101614.97;;;9.82;56.99
29371;BME280;16357;52.188;7.838;2023-04-30T00:31:46;101616.94;;;9.80;57.22
29371;BME280;16357;52.188;7.838;2023-04-30T00:34:12;101613.53;;;9.78;57.21
29371;BME280;16357;52.188;7.838;2023-04-30T00:36:39;101628.78;;;9.77;57.15
29371;BME280;16357;52.188;7.838;2023-04-30T00:39:05;101623.53;;;9.76;57.46
29371;BME280;16357;52.188;7.838;2023-04-30T00:41:34;101624.53;;;9.75;57.21
29371;BME280;16357;52.188;7.838;2023-04-30T00:44:00;101627.31;;;9.73;57.76
29371;BME280;16357;52.188;7.838;2023-04-30T00:46:30;101621.13;;;9.73;57.66
29371;BME280;16357;52.188;7.838;2023-04-30T00:48:56;101622.13;;;9.72;57.47
29371;BME280;16357;52.188;7.838;2023-04-30T00:51:23;101627.47;;;9.72;57.72
29371;BME280;16357;52.188;7.838;2023-04-30T00:53:50;101632.94;;;9.70;57.67
29371;BME280;16357;52.188;7.838;2023-04-30T00:56:17;101639.16;;;9.71;57.79
29371;BME280;16357;52.188;7.838;2023-04-30T00:58:44;101637.47;;;9.70;57.53
29371;BME280;16357;52.188;7.838;2023-04-30T01:01:10;101642.81;;;9.70;57.82
29371;BME280;16357;52.188;7.838;2023-04-30T01:03:37;101646.44;;;9.68;57.57
29371;BME280;16357;52.188;7.838;2023-04-30T01:06:04;101640.41;;;9.66;57.74
29371;BME280;16357;52.188;7.838;2023-04-30T01:08:31;101636.84;;;9.66;57.52
29371;BME280;16357;52.188;7.838;2023-04-30T01:11:24;101639.66;;;9.64;57.52
29371;BME280;16357;52.188;7.838;2023-04-30T01:14:27;101644.19;;;9.64;57.63
29371;BME280;16357;52.188;7.838;2023-04-30T01:17:15;101645.28;;;9.61;57.71
29371;BME280;16357;52.188;7.838;2023-04-30T01:19:46;101631.16;;;9.59;57.37
29371;BME280;16357;52.188;7.838;2023-04-30T01:25:52;101640.56;;;9.54;57.78
29371;BME280;16357;52.188;7.838;2023-04-30T01:28:17;101638.00;;;9.52;58.03
29371;BME280;16357;52.188;7.838;2023-04-30T01:30:45;101639.09;;;9.50;58.00
29371;BME280;16357;52.188;7.838;2023-04-30T01:33:12;101643.88;;;9.46;58.22
29371;BME280;16357;52.188;7.838;2023-04-30T01:38:42;101639.63;;;9.43;57.90
29371;BME280;16357;52.188;7.838;2023-04-30T01:46:35;101637.31;;;9.39;58.11
29371;BME280;16357;52.188;7.838;2023-04-30T01:49:11;101634.78;;;9.37;57.87
29371;BME280;16357;52.188;7.838;2023-04-30T01:51:42;101642.09;;;9.35;57.73
29371;BME280;16357;52.188;7.838;2023-04-30T01:54:16;101641.25;;;9.35;57.94
29371;BME280;16357;52.188;7.838;2023-04-30T01:56:53;101651.22;;;9.33;57.47
29371;BME280;16357;52.188;7.838;2023-04-30T01:59:25;101648.81;;;9.30;58.02
29371;BME280;16357;52.188;7.838;2023-04-30T02:01:52;101648.06;;;9.28;57.85
29371;BME280;16357;52.188;7.838;2023-04-30T02:04:18;101653.53;;;9.26;58.01
29371;BME280;16357;52.188;7.838;2023-04-30T02:06:45;101655.63;;;9.22;57.92
29371;BME280;16357;52.188;7.838;2023-04-30T02:09:11;101662.94;;;9.20;57.78
29371;BME280;16357;52.188;7.838;2023-04-30T02:11:37;101657.81;;;9.17;58.17
29371;BME280;16357;52.188;7.838;2023-04-30T02:14:04;101655.41;;;9.14;58.02
29371;BME280;16357;52.188;7.838;2023-04-30T02:16:31;101655.66;;;9.11;58.09
29371;BME280;16357;52.188;7.838;2023-04-30T02:18:57;101666.47;;;9.10;58.31
29371;BME280;16357;52.188;7.838;2023-04-30T02:21:24;101666.59;;;9.08;58.36
29371;BME280;16357;52.188;7.838;2023-04-30T02:23:50;101673.03;;;9.06;58.11
29371;BME280;16357;52.188;7.838;2023-04-30T02:26:17;101680.38;;;9.04;58.06
29371;BME280;16357;52.188;7.838;2023-04-30T02:28:43;101675.13;;;9.02;58.16
29371;BME280;16357;52.188;7.838;2023-04-30T02:31:10;101672.59;;;9.00;58.12
29371;BME280;16357;52.188;7.838;2023-04-30T02:33:36;101685.22;;;8.98;58.12
29371;BME280;16357;52.188;7.838;2023-04-30T02:36:03;101682.66;;;8.97;58.44
29371;BME280;16357;52.188;7.838;2023-04-30T02:38:29;101679.25;;;8.95;58.16
29371;BME280;16357;52.188;7.838;2023-04-30T02:40:56;101683.91;;;8.93;58.08
29371;BME280;16357;52.188;7.838;2023-04-30T02:43:22;101675.25;;;8.89;58.34
29371;BME280;16357;52.188;7.838;2023-04-30T02:45:48;101671.00;;;8.87;58.45
29371;BME280;16357;52.188;7.838;2023-04-30T02:48:15;101675.63;;;8.85;58.17
29371;BME280;16357;52.188;7.838;2023-04-30T02:50:41;101671.38;;;8.82;58.52
29371;BME280;16357;52.188;7.838;2023-04-30T02:53:08;101681.22;;;8.82;58.36
29371;BME280;16357;52.188;7.838;2023-04-30T02:55:34;101685.84;;;8.79;58.66
29371;BME280;16357;52.188;7.838;2023-04-30T02:58:01;101688.75;;;8.76;58.53
29371;BME280;16357;52.188;7.838;2023-04-30T03:00:28;101687.06;;;8.75;58.85
29371;BME280;16357;52.188;7.838;2023-04-30T03:02:54;101683.63;;;8.73;58.39
29371;BME280;16357;52.188;7.838;2023-04-30T03:05:21;101686.56;;;8.70;58.64
29371;BME280;16357;52.188;7.838;2023-04-30T03:07:48;101687.56;;;8.69;58.48
29371;BME280;16357;52.188;7.838;2023-04-30T03:10:14;101675.28;;;8.67;58.72
29371;BME280;16357;52.188;7.838;2023-04-30T03:12:41;101678.06;;;8.65;58.49
29371;BME280;16357;52.188;7.838;2023-04-30T03:15:07;101690.69;;;8.63;58.84
29371;BME280;16357;52.188;7.838;2023-04-30T03:17:34;101684.75;;;8.60;58.39
29371;BME280;16357;52.188;7.838;2023-04-30T03:20:01;101677.81;;;8.57;58.50
29371;BME280;16357;52.188;7.838;2023-04-30T03:22:27;101671.72;;;8.55;58.31
29371;BME280;16357;52.188;7.838;2023-04-30T03:24:54;101672.81;;;8.52;58.55
29371;BME280;16357;52.188;7.838;2023-04-30T03:27:20;101668.56;;;8.50;58.74
29371;BME280;16357;52.188;7.838;2023-04-30T03:29:46;101673.19;;;8.48;58.53
29371;BME280;16357;52.188;7.838;2023-04-30T03:32:14;101669.88;;;8.44;58.61
29371;BME280;16357;52.188;7.838;2023-04-30T03:34:40;101679.84;;;8.42;58.35
29371;BME280;16357;52.188;7.838;2023-04-30T03:37:06;101682.75;;;8.39;58.62
29371;BME280;16357;52.188;7.838;2023-04-30T03:39:33;101680.41;;;8.34;58.40
29371;BME280;16357;52.188;7.838;2023-04-30T03:41:59;101680.63;;;8.31;58.89
29371;BME280;16357;52.188;7.838;2023-04-30T03:44:28;101673.00;;;8.27;58.75
29371;BME280;16357;52.188;7.838;2023-04-30T03:46:54;101671.53;;;8.23;58.72
29371;BME280;16357;52.188;7.838;2023-04-30T03:49:21;101671.88;;;8.18;59.25
29371;BME280;16357;52.188;7.838;2023-04-30T03:51:47;101675.03;;;8.12;58.83
29371;BME280;16357;52.188;7.838;2023-04-30T03:54:13;101671.84;;;8.07;59.39
29371;BME280;16357;52.188;7.838;2023-04-30T03:56:40;101663.31;;;8.02;59.20
29371;BME280;16357;52.188;7.838;2023-04-30T03:59:06;101677.88;;;7.98;59.41
29371;BME280;16357;52.188;7.838;2023-04-30T04:01:33;101675.44;;;7.95;59.64
29371;BME280;16357;52.188;7.838;2023-04-30T04:03:59;101679.19;;;7.92;59.50
29371;BME280;16357;52.188;7.838;2023-04-30T04:06:26;101676.75;;;7.89;59.60
29371;BME280;16357;52.188;7.838;2023-04-30T04:08:53;101673.34;;;7.87;60.18
29371;BME280;16357;52.188;7.838;2023-04-30T04:11:19;101685.13;;;7.84;59.96
29371;BME280;16357;52.188;7.838;2023-04-30T04:13:46;101684.41;;;7.82;60.48
29371;BME280;16357;52.188;7.838;2023-04-30T04:16:12;101687.06;;;7.82;59.98
29371;BME280;16357;52.188;7.838;2023-04-30T04:18:38;101688.88;;;7.82;60.28
29371;BME280;16357;52.188;7.838;2023-04-30T04:21:05;101688.88;;;7.82;60.64
29371;BME280;16357;52.188;7.838;2023-04-30T04:23:31;101688.03;;;7.81;60.30
29371;BME280;16357;52.188;7.838;2023-04-30T04:25:58;101692.28;;;7.84;60.35
29371;BME280;16357;52.188;7.838;2023-04-30T04:28:25;101693.13;;;7.84;60.13
29371;BME280;16357;52.188;7.838;2023-04-30T04:30:51;101693.13;;;7.84;60.19
29371;BME280;16357;52.188;7.838;2023-04-30T04:33:18;101696.53;;;7.86;60.70
29371;BME280;16357;52.188;7.838;2023-04-30T04:35:44;101692.94;;;7.87;60.50
29371;BME280;16357;52.188;7.838;2023-04-30T04:38:11;101689.28;;;7.88;60.11
29371;BME280;16357;52.188;7.838;2023-04-30T04:40:37;101690.97;;;7.89;60.16
29371;BME280;16357;52.188;7.838;2023-04-30T04:43:04;101697.06;;;7.91;60.61
29371;BME280;16357;52.188;7.838;2023-04-30T04:45:30;101689.88;;;7.92;60.19
29371;BME280;16357;52.188;7.838;2023-04-30T04:47:57;101691.47;;;7.95;60.43
29371;BME280;16357;52.188;7.838;2023-04-30T04:50:24;101691.38;;;7.96;60.87
29371;BME280;16357;52.188;7.838;2023-04-30T04:52:50;101692.97;;;7.99;61.03
29371;BME280;16357;52.188;7.838;2023-04-30T04:55:17;101698.06;;;8.02;60.65
29371;BME280;16357;52.188;7.838;2023-04-30T04:57:44;101698.81;;;8.04;60.74
29371;BME280;16357;52.188;7.838;2023-04-30T05:00:10;101695.16;;;8.05;61.08
29371;BME280;16357;52.188;7.838;2023-04-30T05:02:38;101699.56;;;8.06;61.52
29371;BME280;16357;52.188;7.838;2023-04-30T05:05:04;101705.59;;;8.08;61.45
29371;BME280;16357;52.188;7.838;2023-04-30T05:07:32;101703.69;;;8.10;61.59
29371;BME280;16357;52.188;7.838;2023-04-30T05:10:00;101701.75;;;8.12;61.64
29371;BME280;16357;52.188;7.838;2023-04-30T05:12:26;101698.84;;;8.15;61.77
29371;BME280;16357;52.188;7.838;2023-04-30T05:14:52;101703.84;;;8.20;62.13
29371;BME280;16357;52.188;7.838;2023-04-30T05:17:19;101707.00;;;8.25;61.98
29371;BME280;16357;52.188;7.838;2023-04-30T05:19:46;101704.84;;;8.30;61.81
29371;BME280;16357;52.188;7.838;2023-04-30T05:22:14;101709.69;;;8.36;62.24
29371;BME280;16357;52.188;7.838;2023-04-30T05:24:40;101712.81;;;8.43;61.93
29371;BME280;16357;52.188;7.838;2023-04-30T05:27:07;101705.28;;;8.48;61.75
29371;BME280;16357;52.188;7.838;2023-04-30T05:29:34;101703.81;;;8.55;62.14
29371;BME280;16357;52.188;7.838;2023-04-30T05:32:00;101702.47;;;8.61;61.81
29371;BME280;16357;52.188;7.838;2023-04-30T05:34:27;101703.84;;;8.66;61.59
29371;BME280;16357;52.188;7.838;2023-04-30T05:36:53;101706.03;;;8.72;61.74
29371;BME280;16357;52.188;7.838;2023-04-30T05:39:20;101709.19;;;8.77;61.67
29371;BME280;16357;52.188;7.838;2023-04-30T05:41:46;101701.66;;;8.83;61.55
29371;BME280;16357;52.188;7.838;2023-04-30T05:44:14;101711.03;;;8.88;61.53
29371;BME280;16357;52.188;7.838;2023-04-30T05:46:40;101718.69;;;8.93;61.13
29371;BME280;16357;52.188;7.838;2023-04-30T05:49:07;101716.50;;;8.98;61.29
29371;BME280;16357;52.188;7.838;2023-04-30T05:51:33;101717.94;;;9.02;61.14
29371;BME280;16357;52.188;7.838;2023-04-30T05:54:00;101708.72;;;9.06;61.00
29371;BME280;16357;52.188;7.838;2023-04-30T05:56:26;101716.34;;;9.11;61.13
29371;BME280;16357;52.188;7.838;2023-04-30T05:58:53;101718.56;;;9.17;60.92
29371;BME280;16357;52.188;7.838;2023-04-30T06:01:19;101717.22;;;9.22;60.75
29371;BME280;16357;52.188;7.838;2023-04-30T06:03:46;101723.88;;;9.28;60.78
29371;BME280;16357;52.188;7.838;2023-04-30T06:06:12;101722.53;;;9.34;60.02
29371;BME280;16357;52.188;7.838;2023-04-30T06:08:39;101721.31;;;9.38;59.97
29371;BME280;16357;52.188;7.838;2023-04-30T06:11:12;101730.69;;;9.43;60.12
29371;BME280;16357;52.188;7.838;2023-04-30T06:13:40;101723.25;;;9.47;59.88
29371;BME280;16357;52.188;7.838;2023-04-30T06:16:06;101721.88;;;9.53;59.95
29371;BME280;16357;52.188;7.838;2023-04-30T06:18:34;101727.59;;;9.59;60.14
29371;BME280;16357;52.188;7.838;2023-04-30T06:21:00;101729.03;;;9.63;59.55
29371;BME280;16357;52.188;7.838;2023-04-30T06:23:27;101722.34;;;9.69;59.63
29371;BME280;16357;52.188;7.838;2023-04-30T06:25:53;101731.72;;;9.75;59.44
29371;BME280;16357;52.188;7.838;2023-04-30T06:28:20;101725.84;;;9.81;59.20
29371;BME280;16357;52.188;7.838;2023-04-30T06:30:46;101730.66;;;9.87;58.95
29371;BME280;16357;52.188;7.838;2023-04-30T06:33:12;101732.03;;;9.93;58.67
29371;BME280;16357;52.188;7.838;2023-04-30T06:35:39;101731.50;;;9.99;58.95
29371;BME280;16357;52.188;7.838;2023-04-30T06:38:05;101730.00;;;10.06;58.46
29371;BME280;16357;52.188;7.838;2023-04-30T06:40:32;101734.84;;;10.12;58.48
29371;BME280;16357;52.188;7.838;2023-04-30T06:42:58;101736.88;;;10.20;58.58
29371;BME280;16357;52.188;7.838;2023-04-30T06:45:25;101727.34;;;10.27;58.61
29371;BME280;16357;52.188;7.838;2023-04-30T06:47:51;101724.16;;;10.33;58.32
29371;BME280;16357;52.188;7.838;2023-04-30T06:50:19;101719.84;;;10.42;58.50
29371;BME280;16357;52.188;7.838;2023-04-30T06:52:46;101729.66;;;10.52;58.03
29371;BME280;16357;52.188;7.838;2023-04-30T06:55:13;101725.34;;;10.61;57.58
29371;BME280;16357;52.188;7.838;2023-04-30T06:57:39;101729.06;;;10.70;57.52
29371;BME280;16357;52.188;7.838;2023-04-30T07:00:06;101737.28;;;10.78;56.86
29371;BME280;16357;52.188;7.838;2023-04-30T07:02:34;101726.72;;;10.86;56.64
29371;BME280;16357;52.188;7.838;2023-04-30T07:05:01;101734.00;;;10.95;56.03
29371;BME280;16357;52.188;7.838;2023-04-30T07:07:27;101728.09;;;11.02;56.01
29371;BME280;16357;52.188;7.838;2023-04-30T07:09:54;101722.16;;;11.08;55.75
29371;BME280;16357;52.188;7.838;2023-04-30T07:12:21;101727.84;;;11.14;55.68
29371;BME280;16357;52.188;7.838;2023-04-30T07:14:47;101733.50;;;11.21;55.25
29371;BME280;16357;52.188;7.838;2023-04-30T07:17:14;101733.94;;;11.26;54.71
29371;BME280;16357;52.188;7.838;2023-04-30T07:19:40;101730.75;;;11.32;55.13
29371;BME280;16357;52.188;7.838;2023-04-30T07:22:07;101737.41;;;11.38;55.07
29371;BME280;16357;52.188;7.838;2023-04-30T07:24:33;101737.69;;;11.45;54.90
29371;BME280;16357;52.188;7.838;2023-04-30T07:27:00;101742.25;;;11.54;55.17
29371;BME280;16357;52.188;7.838;2023-04-30T07:29:28;101746.78;;;11.63;54.72
29371;BME280;16357;52.188;7.838;2023-04-30T07:31:55;101737.75;;;11.74;55.01
29371;BME280;16357;52.188;7.838;2023-04-30T07:34:22;101731.38;;;11.84;54.85
29371;BME280;16357;52.188;7.838;2023-04-30T07:36:48;101734.00;;;11.96;54.46
29371;BME280;16357;52.188;7.838;2023-04-30T07:39:15;101731.16;;;12.07;54.12
29371;BME280;16357;52.188;7.838;2023-04-30T07:41:42;101723.78;;;12.19;53.84
29371;BME280;16357;52.188;7.838;2023-04-30T07:44:08;101728.84;;;12.32;54.14
29371;BME280;16357;52.188;7.838;2023-04-30T07:46:36;101725.16;;;12.42;53.82
29371;BME280;16357;52.188;7.838;2023-04-30T07:49:03;101728.56;;;12.54;53.51
29371;BME280;16357;52.188;7.838;2023-04-30T07:51:29;101725.69;;;12.65;53.02
29371;BME280;16357;52.188;7.838;2023-04-30T07:53:58;101726.50;;;12.76;53.03
29371;BME280;16357;52.188;7.838;2023-04-30T07:56:25;101734.56;;;12.85;52.19
29371;BME280;16357;52.188;7.838;2023-04-30T07:58:51;101735.53;;;12.94;51.62
29371;BME280;16357;52.188;7.838;2023-04-30T08:01:17;101734.91;;;13.00;51.22
29371;BME280;16357;52.188;7.838;2023-04-30T08:03:44;101730.94;;;13.04;50.84
29371;BME280;16357;52.188;7.838;2023-04-30T08:06:11;101730.66;;;13.07;50.40
29371;BME280;16357;52.188;7.838;2023-04-30T08:08:38;101738.41;;;13.10;50.57
29371;BME280;16357;52.188;7.838;2023-04-30T08:11:04;101737.44;;;13.11;51.01
29371;BME280;16357;52.188;7.838;2023-04-30T08:13:31;101731.59;;;13.16;50.35
29371;BME280;16357;52.188;7.838;2023-04-30T08:15:57;101731.44;;;13.17;50.32
29371;BME280;16357;52.188;7.838;2023-04-30T08:18:24;101733.84;;;13.21;50.73
29371;BME280;16357;52.188;7.838;2023-04-30T08:20:50;101736.94;;;13.26;50.47
29371;BME280;16357;52.188;7.838;2023-04-30T08:23:17;101729.28;;;13.31;50.46
29371;BME280;16357;52.188;7.838;2023-04-30T08:25:43;101740.47;;;13.36;49.41
29371;BME280;16357;52.188;7.838;2023-04-30T08:28:09;101737.88;;;13.44;49.59
29371;BME280;16357;52.188;7.838;2023-04-30T08:30:36;101740.97;;;13.49;49.61
29371;BME280;16357;52.188;7.838;2023-04-30T08:33:02;101735.97;;;13.54;48.96
29371;BME280;16357;52.188;7.838;2023-04-30T08:35:29;101741.75;;;13.59;49.04
29371;BME280;16357;52.188;7.838;2023-04-30T08:37:55;101739.44;;;13.65;48.56
29371;BME280;16357;52.188;7.838;2023-04-30T08:40:22;101737.16;;;13.70;48.54
29371;BME280;16357;52.188;7.838;2023-04-30T08:43:08;101742.44;;;13.79;49.49
29371;BME280;16357;52.188;7.838;2023-04-30T08:45:36;101735.91;;;13.82;48.34
29371;BME280;16357;52.188;7.838;2023-04-30T08:48:03;101741.03;;;13.85;47.96
29371;BME280;16357;52.188;7.838;2023-04-30T08:50:30;101747.97;;;13.88;48.18
29371;BME280;16357;52.188;7.838;2023-04-30T08:52:58;101743.09;;;13.91;48.00
29371;BME280;16357;52.188;7.838;2023-04-30T08:55:28;101739.06;;;13.95;48.01
29371;BME280;16357;52.188;7.838;2023-04-30T08:57:55;101738.63;;;14.00;47.83
29371;BME280;16357;52.188;7.838;2023-04-30T09:00:21;101734.44;;;14.05;48.14
29371;BME280;16357;52.188;7.838;2023-04-30T09:02:48;101730.84;;;14.15;47.42
29371;BME280;16357;52.188;7.838;2023-04-30T09:05:15;101729.03;;;14.23;47.02
29371;BME280;16357;52.188;7.838;2023-04-30T09:07:44;101730.81;;;14.33;47.24
29371;BME280;16357;52.188;7.838;2023-04-30T09:10:31;101731.41;;;14.44;47.08
29371;BME280;16357;52.188;7.838;2023-04-30T09:13:00;101728.78;;;14.53;46.74
29371;BME280;16357;52.188;7.838;2023-04-30T09:15:27;101728.84;;;14.61;46.88
29371;BME280;16357;52.188;7.838;2023-04-30T09:18:09;101719.81;;;14.70;47.15
29371;BME280;16357;52.188;7.838;2023-04-30T09:20:37;101718.16;;;14.77;46.68
29371;BME280;16357;52.188;7.838;2023-04-30T09:23:08;101712.47;;;14.88;46.86
29371;BME280;16357;52.188;7.838;2023-04-30T09:25:39;101708.63;;;14.99;46.45
29371;BME280;16357;52.188;7.838;2023-04-30T09:28:11;101714.09;;;15.07;46.52
29371;BME280;16357;52.188;7.838;2023-04-30T09:30:41;101714.81;;;15.18;46.43
29371;BME280;16357;52.188;7.838;2023-04-30T09:33:08;101713.81;;;15.27;45.90
29371;BME280;16357;52.188;7.838;2023-04-30T09:35:39;101708.13;;;15.38;46.01
29371;BME280;16357;52.188;7.838;2023-04-30T09:38:07;101712.38;;;15.49;45.61
29371;BME280;16357;52.188;7.838;2023-04-30T09:40:38;101713.59;;;15.63;45.67
29371;BME280;16357;52.188;7.838;2023-04-30T09:43:08;101711.63;;;15.73;44.82
29371;BME280;16357;52.188;7.838;2023-04-30T09:45:45;101708.44;;;15.86;45.66
29371;BME280;16357;52.188;7.838;2023-04-30T09:48:18;101699.13;;;15.96;45.57
29371;BME280;16357;52.188;7.838;2023-04-30T09:50:47;101697.94;;;16.07;45.14
29371;BME280;16357;52.188;7.838;2023-04-30T09:53:14;101696.59;;;16.19;44.43
29371;BME280;16357;52.188;7.838;2023-04-30T09:55:45;101687.44;;;16.29;44.47
29371;BME280;16357;52.188;7.838;2023-04-30T09:58:12;101683.72;;;16.38;44.35
29371;BME280;16357;52.188;7.838;2023-04-30T10:00:39;101685.75;;;16.44;43.84
29371;BME280;16357;52.188;7.838;2023-04-30T10:03:09;101689.63;;;16.50;43.42
29371;BME280;16357;52.188;7.838;2023-04-30T10:05:46;101686.56;;;16.53;43.55
29371;BME280;16357;52.188;7.838;2023-04-30T10:08:41;101689.09;;;16.54;43.73
29371;BME280;16357;52.188;7.838;2023-04-30T10:11:09;101691.81;;;16.54;43.61
29371;BME280;16357;52.188;7.838;2023-04-30T10:13:59;101692.50;;;16.56;43.43
29371;BME280;16357;52.188;7.838;2023-04-30T10:16:50;101688.75;;;16.57;43.95
29371;BME280;16357;52.188;7.838;2023-04-30T10:19:22;101686.72;;;16.59;43.03
29371;BME280;16357;52.188;7.838;2023-04-30T10:21:50;101677.22;;;16.63;42.93
29371;BME280;16357;52.188;7.838;2023-04-30T10:24:19;101673.84;;;16.70;43.59
29371;BME280;16357;52.188;7.838;2023-04-30T10:26:49;101670.41;;;16.76;43.34
29371;BME280;16357;52.188;7.838;2023-04-30T10:29:17;101680.44;;;16.83;43.53
29371;BME280;16357;52.188;7.838;2023-04-30T10:31:45;101673.94;;;16.93;43.68
29371;BME280;16357;52.188;7.838;2023-04-30T10:34:45;101678.13;;;17.03;43.71
29371;BME280;16357;52.188;7.838;2023-04-30T10:37:38;101668.59;;;17.16;43.86
29371;BME280;16357;52.188;7.838;2023-04-30T10:40:08;101664.84;;;17.25;43.36
29371;BME280;16357;52.188;7.838;2023-04-30T10:42:35;101664.59;;;17.34;42.80
29371;BME280;16357;52.188;7.838;2023-04-30T10:45:02;101663.53;;;17.44;41.83
29371;BME280;16357;52.188;7.838;2023-04-30T10:47:29;101658.41;;;17.49;41.37
29371;BME280;16357;52.188;7.838;2023-04-30T10:50:03;101655.16;;;17.53;42.05
29371;BME280;16357;52.188;7.838;2023-04-30T10:52:30;101648.03;;;17.52;41.94
29371;BME280;16357;52.188;7.838;2023-04-30T10:54:56;101651.41;;;17.54;41.87
29371;BME280;16357;52.188;7.838;2023-04-30T10:57:28;101647.13;;;17.60;42.32
29371;BME280;16357;52.188;7.838;2023-04-30T11:02:44;101650.09;;;17.73;41.52
29371;BME280;16357;52.188;7.838;2023-04-30T11:05:15;101643.47;;;17.76;40.93
29371;BME280;16357;52.188;7.838;2023-04-30T11:10:24;101636.00;;;17.78;40.23
29371;BME280;16357;52.188;7.838;2023-04-30T11:13:12;101636.81;;;17.78;40.53
29371;BME280;16357;52.188;7.838;2023-04-30T11:15:44;101631.56;;;17.77;40.04
29371;BME280;16357;52.188;7.838;2023-04-30T11:18:14;101624.97;;;17.80;40.40
29371;BME280;16357;52.188;7.838;2023-04-30T11:20:48;101612.56;;;17.85;40.70
29371;BME280;16357;52.188;7.838;2023-04-30T11:23:25;101609.94;;;17.92;40.71
29371;BME280;16357;52.188;7.838;2023-04-30T11:26:03;101614.44;;;17.99;39.98
29371;BME280;16357;52.188;7.838;2023-04-30T11:28:49;101613.31;;;18.09;39.88
29371;BME280;16357;52.188;7.838;2023-04-30T11:31:21;101612.59;;;18.15;39.26
29371;BME280;16357;52.188;7.838;2023-04-30T11:33:49;101614.78;;;18.19;38.76
29371;BME280;16357;52.188;7.838;2023-04-30T11:36:15;101604.94;;;18.18;38.26
29371;BME280;16357;52.188;7.838;2023-04-30T11:38:42;101607.84;;;18.17;38.12
29371;BME280;16357;52.188;7.838;2023-04-30T11:41:11;101608.19;;;18.14;38.65
29371;BME280;16357;52.188;7.838;2023-04-30T11:43:37;101602.13;;;18.12;38.66
29371;BME280;16357;52.188;7.838;2023-04-30T11:46:09;101596.50;;;18.13;38.81
29371;BME280;16357;52.188;7.838;2023-04-30T11:48:39;101603.63;;;18.14;38.69
29371;BME280;16357;52.188;7.838;2023-04-30T11:51:13;101596.13;;;18.16;38.52
29371;BME280;16357;52.188;7.838;2023-04-30T11:53:40;101589.66;;;18.17;38.12
29371;BME280;16357;52.188;7.838;2023-04-30T11:56:07;101588.47;;;18.20;38.18
29371;BME280;16357;52.188;7.838;2023-04-30T11:58:35;101574.50;;;18.23;38.21
29371;BME280;16357;52.188;7.838;2023-04-30T12:01:07;101575.25;;;18.32;38.75
29371;BME280;16357;52.188;7.838;2023-04-30T12:03:44;101568.88;;;18.39;38.82
29371;BME280;16357;52.188;7.838;2023-04-30T12:06:33;101570.47;;;18.49;38.06
29371;BME280;16357;52.188;7.838;2023-04-30T12:08:59;101568.50;;;18.57;38.08
29371;BME280;16357;52.188;7.838;2023-04-30T12:11:28;101567.06;;;18.61;37.77
29371;BME280;16357;52.188;7.838;2023-04-30T12:13:57;101564.00;;;18.64;37.59
29371;BME280;16357;52.188;7.838;2023-04-30T12:16:27;101561.91;;;18.67;37.36
29371;BME280;16357;52.188;7.838;2023-04-30T12:18:53;101555.06;;;18.71;37.38
29371;BME280;16357;52.188;7.838;2023-04-30T12:21:21;101553.19;;;18.71;37.16
29371;BME280;16357;52.188;7.838;2023-04-30T12:23:48;101558.63;;;18.71;36.96
29371;BME280;16357;52.188;7.838;2023-04-30T12:26:15;101546.91;;;18.71;36.52
29371;BME280;16357;52.188;7.838;2023-04-30T12:28:41;101549.63;;;18.71;37.41
29371;BME280;16357;52.188;7.838;2023-04-30T12:31:07;101556.97;;;18.70;37.27
29371;BME280;16357;52.188;7.838;2023-04-30T12:33:34;101550.47;;;18.71;36.47
29371;BME280;16357;52.188;7.838;2023-04-30T12:36:02;101539.59;;;18.71;36.65
29371;BME280;16357;52.188;7.838;2023-04-30T12:38:28;101542.31;;;18.71;35.82
29371;BME280;16357;52.188;7.838;2023-04-30T12:40:55;101540.66;;;18.70;36.43
29371;BME280;16357;52.188;7.838;2023-04-30T12:43:21;101536.88;;;18.71;37.00
29371;BME280;16357;52.188;7.838;2023-04-30T12:45:49;101535.88;;;18.72;36.50
29371;BME280;16357;52.188;7.838;2023-04-30T12:48:23;101532.41;;;18.78;36.80
29371;BME280;16357;52.188;7.838;2023-04-30T12:50:58;101540.84;;;18.83;37.45
29371;BME280;16357;52.188;7.838;2023-04-30T12:53:25;101539.22;;;18.89;36.41
29371;BME280;16357;52.188;7.838;2023-04-30T12:56:13;101526.72;;;18.95;36.99
29371;BME280;16357;52.188;7.838;2023-04-30T12:58:46;101532.63;;;18.98;36.23
29371;BME280;16357;52.188;7.838;2023-04-30T13:01:21;101527.00;;;19.00;36.38
29371;BME280;16357;52.188;7.838;2023-04-30T13:03:51;101533.09;;;19.02;35.64
29371;BME280;16357;52.188;7.838;2023-04-30T13:06:20;101531.88;;;19.04;35.69
29371;BME280;16357;52.188;7.838;2023-04-30T13:08:48;101528.75;;;19.07;35.43
29371;BME280;16357;52.188;7.838;2023-04-30T13:11:24;101524.16;;;19.08;35.45
29371;BME280;16357;52.188;7.838;2023-04-30T13:13:52;101525.84;;;19.09;35.29
29371;BME280;16357;52.188;7.838;2023-04-30T13:16:21;101510.56;;;19.08;35.52
29371;BME280;16357;52.188;7.838;2023-04-30T13:18:48;101515.16;;;19.07;35.69